Terminal Aerodrome Forecast
Issued by NWS Grand Rapids, MI

Home | Current Version | Previous Version | Text Only | Print | Product List | Glossary On
Versions: 1 2 3 4 5 6 7 8 9 10 11 12 13 14 15 16 17 18
000
FTUS43 KGRR 300123 AAA
TAFGRR
TAF AMD
KGRR 300123Z 3001/3024 18007KT P6SM VCSH SCT050 BKN100
      TEMPO 3001/3002 2SM -TSRA OVC035CB
     FM300900 23007KT 5SM BR VCSH OVC015
     FM301200 33007KT 2SM -RA BR OVC005
     FM302100 01013G22KT 2SM -RA BR OVC005=

USA.gov is the U.S. government's official web portal to all federal, state and local government web resources and services.